Time;durP1;ratioP1;P1;durP2;ratioP2;P2;SDS_P1;SDS_P2;PMS_P1;PMS_P2;Temp;Humidity;BMP_temperature;BMP_pressure;BME280_temperature;BME280_humidity;BME280_pressure;Samples;Min_cycle;Max_cycle;Signal;HPM_P1;HPM_P2
2023/01/06 00:00:36;;;;;;;0.57;0.20;;;9.60;99.90;;;;;;6081748;23;20010;-71
2023/01/06 00:03:02;;;;;;;0.38;0.20;;;9.60;99.90;;;;;;6079381;23;20022;-73
2023/01/06 00:05:28;;;;;;;1.05;0.20;;;9.60;99.90;;;;;;6077414;23;20457;-73
2023/01/06 00:07:54;;;;;;;0.43;0.30;;;9.50;99.90;;;;;;6077374;23;20093;-71
2023/01/06 00:10:20;;;;;;;0.80;0.30;;;9.50;99.90;;;;;;6079321;23;20498;-73
2023/01/06 00:12:47;;;;;;;0.85;0.40;;;9.50;99.90;;;;;;6073992;23;20389;-71
2023/01/06 00:15:13;;;;;;;0.25;0.25;;;9.40;99.90;;;;;;6078486;23;20034;-72
2023/01/06 00:17:38;;;;;;;0.57;0.30;;;9.40;99.90;;;;;;6076213;23;20637;-72
2023/01/06 00:20:05;;;;;;;0.90;0.20;;;9.40;99.90;;;;;;6072709;23;20013;-71
2023/01/06 00:22:30;;;;;;;0.68;0.30;;;9.40;99.90;;;;;;6078136;23;20416;-71
2023/01/06 00:24:56;;;;;;;0.50;0.22;;;9.40;99.90;;;;;;6077892;23;20065;-72
2023/01/06 00:27:22;;;;;;;1.50;0.30;;;9.40;99.90;;;;;;6076684;23;20145;-71
2023/01/06 00:29:49;;;;;;;0.22;0.20;;;9.40;99.90;;;;;;6075380;23;20077;-71
2023/01/06 00:32:16;;;;;;;0.52;0.40;;;9.40;99.90;;;;;;6079410;23;20029;-71
2023/01/06 00:34:41;;;;;;;1.45;0.43;;;9.30;99.90;;;;;;6079009;23;20038;-71
2023/01/06 00:37:07;;;;;;;1.23;0.40;;;9.40;99.90;;;;;;6079316;23;20491;-73
2023/01/06 00:39:33;;;;;;;0.20;0.20;;;9.40;99.90;;;;;;6081736;23;20009;-71
2023/01/06 00:42:05;;;;;;;0.10;0.10;;;9.40;99.90;;;;;;6079489;23;20014;-71
2023/01/06 00:44:36;;;;;;;0.22;0.20;;;9.40;99.90;;;;;;6077787;23;20085;-71
2023/01/06 00:47:03;;;;;;;1.52;0.20;;;9.40;99.90;;;;;;6080186;23;20034;-72
2023/01/06 00:49:29;;;;;;;0.22;0.20;;;9.40;99.90;;;;;;6081508;23;20105;-71
2023/01/06 00:51:54;;;;;;;0.75;0.20;;;9.40;99.90;;;;;;6081138;23;20049;-72
2023/01/06 00:54:21;;;;;;;0.43;0.40;;;9.50;99.90;;;;;;6082477;23;20076;-72
2023/01/06 00:56:49;;;;;;;1.08;0.30;;;9.50;99.90;;;;;;6082758;23;20017;-71
2023/01/06 00:59:18;;;;;;;0.30;0.28;;;9.50;99.90;;;;;;6084210;23;20007;-71
2023/01/06 01:01:46;;;;;;;0.63;0.40;;;9.60;99.90;;;;;;6086338;23;20171;-72
2023/01/06 01:04:12;;;;;;;0.90;0.20;;;9.60;99.90;;;;;;6081012;23;20057;-71
2023/01/06 01:06:39;;;;;;;0.88;0.40;;;9.60;99.90;;;;;;6083276;23;20006;-71
2023/01/06 01:09:06;;;;;;;0.38;0.30;;;9.60;99.90;;;;;;6079419;23;20444;-69
2023/01/06 01:14:18;;;;;;;1.05;0.20;;;9.40;99.90;;;;;;6081697;23;20018;-69
2023/01/06 01:16:44;;;;;;;1.08;0.30;;;9.50;99.90;;;;;;6080768;23;19999;-71
2023/01/06 01:19:11;;;;;;;0.85;0.30;;;9.50;99.90;;;;;;6079923;23;20013;-72
2023/01/06 01:21:37;;;;;;;1.85;0.40;;;9.50;99.90;;;;;;6080563;23;20038;-73
2023/01/06 01:24:03;;;;;;;0.35;0.22;;;9.50;99.90;;;;;;6079478;23;20125;-71
2023/01/06 01:26:28;;;;;;;0.20;0.20;;;9.50;99.90;;;;;;6081011;23;20109;-71
2023/01/06 01:28:54;;;;;;;0.73;0.30;;;9.40;99.90;;;;;;6079619;23;20536;-71
2023/01/06 01:31:20;;;;;;;0.88;0.60;;;9.40;99.90;;;;;;6083204;23;20380;-73
2023/01/06 01:33:45;;;;;;;0.57;0.20;;;9.40;99.90;;;;;;6076738;23;20042;-73
2023/01/06 01:36:15;;;;;;;2.58;0.77;;;9.50;99.90;;;;;;6077113;23;20006;-73
2023/01/06 01:38:41;;;;;;;0.85;0.40;;;9.50;99.90;;;;;;6084678;23;20078;-73
2023/01/06 01:41:12;;;;;;;0.65;0.50;;;9.40;99.90;;;;;;6082919;23;20455;-72
2023/01/06 01:43:53;;;;;;;0.82;0.55;;;9.40;99.90;;;;;;6080700;23;20503;-72
2023/01/06 01:46:25;;;;;;;0.40;0.40;;;9.30;99.90;;;;;;6081764;23;20007;-72
2023/01/06 01:48:53;;;;;;;0.77;0.50;;;9.20;99.90;;;;;;6079400;23;20006;-72
2023/01/06 01:51:23;;;;;;;0.10;0.10;;;9.10;99.90;;;;;;6080369;23;20025;-73
2023/01/06 01:53:54;;;;;;;1.17;0.30;;;9.00;99.90;;;;;;6079828;23;20056;-70
2023/01/06 01:56:24;;;;;;;1.30;0.50;;;8.90;99.90;;;;;;6079840;23;20050;-70
2023/01/06 01:58:57;;;;;;;1.02;0.50;;;8.90;99.90;;;;;;6081338;23;20021;-72
2023/01/06 02:01:23;;;;;;;0.20;0.20;;;8.90;99.90;;;;;;6080185;23;20839;-71
2023/01/06 02:03:49;;;;;;;0.55;0.40;;;8.70;99.90;;;;;;6083440;23;20077;-70
2023/01/06 02:06:21;;;;;;;0.35;0.28;;;8.50;99.90;;;;;;6078697;23;20431;-69
2023/01/06 02:08:56;;;;;;;0.70;0.30;;;8.40;99.90;;;;;;6079611;23;20007;-69
2023/01/06 02:11:23;;;;;;;0.30;0.20;;;8.30;99.90;;;;;;6080962;23;20090;-70
2023/01/06 02:13:55;;;;;;;0.45;0.30;;;8.20;99.90;;;;;;6079189;23;20002;-72
2023/01/06 02:16:39;;;;;;;0.57;0.22;;;8.20;99.90;;;;;;6076960;23;20010;-72
2023/01/06 02:19:30;;;;;;;1.48;0.30;;;8.20;99.90;;;;;;6080256;23;20100;-72
2023/01/06 02:22:31;;;;;;;0.52;0.38;;;8.20;99.90;;;;;;6079207;23;20019;-71
2023/01/06 02:25:15;;;;;;;0.57;0.40;;;8.20;99.90;;;;;;6077350;23;20089;-71
2023/01/06 02:27:56;;;;;;;1.05;0.43;;;8.30;99.90;;;;;;6079494;23;20093;-71
2023/01/06 02:30:34;;;;;;;0.55;0.30;;;8.40;99.90;;;;;;6081038;23;20038;-69
2023/01/06 02:33:18;;;;;;;0.20;0.20;;;8.50;99.90;;;;;;6082187;23;20028;-70
2023/01/06 02:36:05;;;;;;;0.63;0.30;;;8.60;99.90;;;;;;6076654;23;20002;-71
2023/01/06 02:39:05;;;;;;;1.60;0.30;;;8.60;99.90;;;;;;6082631;23;20022;-71
2023/01/06 02:41:43;;;;;;;1.65;0.47;;;8.60;99.90;;;;;;6072513;23;20460;-71
2023/01/06 02:44:11;;;;;;;0.47;0.20;;;8.60;99.90;;;;;;6079710;23;20010;-74
2023/01/06 02:46:40;;;;;;;0.75;0.40;;;8.60;99.90;;;;;;6081627;23;20010;-74
2023/01/06 02:49:05;;;;;;;1.00;0.50;;;8.50;99.90;;;;;;6079150;23;20006;-73
2023/01/06 02:51:43;;;;;;;0.73;0.40;;;8.30;99.90;;;;;;6078775;23;20044;-73
2023/01/06 02:54:33;;;;;;;2.13;0.40;;;8.30;99.90;;;;;;6077634;23;20006;-74
2023/01/06 02:57:27;;;;;;;0.73;0.38;;;8.20;99.90;;;;;;6073173;23;20082;-73
2023/01/06 03:00:02;;;;;;;1.95;0.75;;;8.20;99.90;;;;;;6074242;23;20002;-75
2023/01/06 03:02:30;;;;;;;0.30;0.30;;;8.10;99.90;;;;;;6079778;23;20015;-72
2023/01/06 03:04:59;;;;;;;0.40;0.32;;;8.10;99.90;;;;;;6076627;23;20061;-73
2023/01/06 03:07:27;;;;;;;0.85;0.43;;;8.10;99.90;;;;;;6077065;23;20018;-72
2023/01/06 03:09:54;;;;;;;2.05;0.40;;;8.00;99.90;;;;;;6080004;23;20053;-72
2023/01/06 03:12:34;;;;;;;1.17;0.30;;;8.00;99.90;;;;;;6077739;23;20569;-72
2023/01/06 03:15:00;;;;;;;2.13;0.30;;;7.90;99.90;;;;;;6078968;23;20006;-73
2023/01/06 03:17:26;;;;;;;0.45;0.40;;;7.80;99.90;;;;;;6071700;23;20450;-74
2023/01/06 03:19:52;;;;;;;1.83;0.40;;;7.70;99.90;;;;;;6076390;23;20010;-73
2023/01/06 03:22:20;;;;;;;0.43;0.30;;;7.70;99.90;;;;;;6082224;23;20017;-77
2023/01/06 03:24:45;;;;;;;1.35;0.20;;;7.70;99.90;;;;;;6079275;23;20065;-77
2023/01/06 03:27:11;;;;;;;1.25;0.40;;;7.60;99.90;;;;;;6080388;23;20030;-76
2023/01/06 03:29:37;;;;;;;1.30;0.38;;;7.60;99.90;;;;;;6079992;23;20006;-77
2023/01/06 03:32:25;;;;;;;0.30;0.30;;;7.50;99.90;;;;;;6079834;23;20400;-76
2023/01/06 03:35:13;;;;;;;1.60;0.57;;;7.40;99.90;;;;;;6077281;23;20009;-77
2023/01/06 03:37:54;;;;;;;0.40;0.35;;;7.30;99.90;;;;;;6039170;23;20420;-77
2023/01/06 03:40:52;;;;;;;1.10;0.85;;;7.30;99.90;;;;;;6083345;23;20006;-77
2023/01/06 03:43:29;;;;;;;5.43;3.03;;;7.40;99.90;;;;;;6081356;23;20073;-76
2023/01/06 03:46:27;;;;;;;3.03;1.55;;;7.50;99.90;;;;;;6078649;23;20098;-77
2023/01/06 03:49:17;;;;;;;2.58;1.33;;;7.60;99.90;;;;;;6077586;23;20010;-75
2023/01/06 03:52:10;;;;;;;1.02;0.70;;;7.70;99.90;;;;;;6073446;23;20723;-77
2023/01/06 03:54:56;;;;;;;1.38;0.80;;;7.70;99.90;;;;;;6077839;23;20010;-77
2023/01/06 03:57:31;;;;;;;1.98;0.90;;;7.70;99.90;;;;;;6078342;23;20318;-77
2023/01/06 04:00:06;;;;;;;0.95;0.70;;;7.70;99.90;;;;;;6075792;23;20010;-75
2023/01/06 04:02:35;;;;;;;1.48;0.75;;;7.70;99.90;;;;;;6076803;23;20018;-77
2023/01/06 04:05:13;;;;;;;1.08;0.98;;;7.80;99.90;;;;;;6078921;23;20313;-75
2023/01/06 04:07:40;;;;;;;2.35;1.10;;;7.70;99.90;;;;;;6076823;23;20010;-76
2023/01/06 04:10:06;;;;;;;1.42;1.10;;;7.70;99.90;;;;;;6076712;23;20014;-75
2023/01/06 04:12:38;;;;;;;2.13;0.80;;;7.60;99.90;;;;;;6080566;23;20002;-76
2023/01/06 04:15:12;;;;;;;1.27;0.60;;;7.50;99.90;;;;;;6077351;23;20017;-76
2023/01/06 04:17:40;;;;;;;0.68;0.68;;;7.50;99.90;;;;;;6080837;23;20006;-76
2023/01/06 04:20:08;;;;;;;2.78;1.70;;;7.50;99.90;;;;;;6077341;23;20200;-75
2023/01/06 04:22:34;;;;;;;2.55;1.65;;;7.40;99.90;;;;;;6078976;23;20776;-76
2023/01/06 04:25:00;;;;;;;1.35;0.70;;;7.40;99.90;;;;;;6077407;23;20386;-76
2023/01/06 04:27:26;;;;;;;2.88;1.00;;;7.40;99.90;;;;;;6078681;23;20045;-75
2023/01/06 04:29:51;;;;;;;5.38;4.88;;;7.40;99.90;;;;;;6073707;23;20722;-77
2023/01/06 04:32:17;;;;;;;2.25;2.05;;;7.30;99.90;;;;;;6076811;23;20006;-76
2023/01/06 04:34:43;;;;;;;2.58;2.17;;;7.40;99.90;;;;;;6078136;23;20018;-75
2023/01/06 04:37:09;;;;;;;1.45;1.30;;;7.40;99.90;;;;;;6075958;23;20527;-75
2023/01/06 04:39:35;;;;;;;1.73;0.90;;;7.30;99.90;;;;;;6080558;23;20018;-76
2023/01/06 04:42:00;;;;;;;1.30;1.20;;;7.30;99.90;;;;;;6079023;23;20014;-74
2023/01/06 04:44:26;;;;;;;1.10;0.57;;;7.40;99.90;;;;;;6078903;23;20006;-76
2023/01/06 04:46:52;;;;;;;1.30;0.50;;;7.40;99.90;;;;;;6073438;23;20011;-76
2023/01/06 04:49:17;;;;;;;0.90;0.30;;;7.30;99.90;;;;;;6076238;23;20025;-76
2023/01/06 04:51:43;;;;;;;1.58;0.60;;;7.30;99.90;;;;;;6079231;23;20105;-77
2023/01/06 04:54:09;;;;;;;1.13;0.75;;;7.30;99.90;;;;;;6078562;23;20841;-76
2023/01/06 04:56:34;;;;;;;3.03;0.63;;;7.20;99.90;;;;;;6078765;23;20014;-76
2023/01/06 04:59:00;;;;;;;0.70;0.52;;;7.20;99.90;;;;;;6079569;23;20733;-77
2023/01/06 05:01:26;;;;;;;0.40;0.40;;;7.20;99.90;;;;;;6078844;23;20007;-78
2023/01/06 05:03:52;;;;;;;1.02;0.40;;;7.10;99.90;;;;;;6079351;23;20030;-78
2023/01/06 05:06:18;;;;;;;2.53;0.73;;;7.20;99.90;;;;;;6079269;23;20489;-77
2023/01/06 05:08:45;;;;;;;1.17;0.30;;;7.30;99.90;;;;;;6080502;23;20026;-76
2023/01/06 05:11:13;;;;;;;0.90;0.30;;;7.30;99.90;;;;;;6079849;23;20352;-76
2023/01/06 05:13:39;;;;;;;1.85;0.52;;;7.30;99.90;;;;;;6079035;23;20023;-76
2023/01/06 05:16:32;;;;;;;1.65;0.47;;;7.40;99.90;;;;;;6078857;23;20046;-77
2023/01/06 05:18:58;;;;;;;1.13;0.77;;;7.50;99.90;;;;;;6079460;23;20003;-77
2023/01/06 05:21:26;;;;;;;2.92;0.85;;;7.50;99.90;;;;;;6081859;23;20010;-77
2023/01/06 05:23:52;;;;;;;1.70;0.93;;;7.60;99.90;;;;;;6080063;23;20010;-78
2023/01/06 05:26:21;;;;;;;1.98;1.30;;;7.60;99.90;;;;;;6078241;23;20025;-77
2023/01/06 05:28:46;;;;;;;2.85;1.58;;;7.70;99.90;;;;;;6079575;23;20049;-78
2023/01/06 05:31:12;;;;;;;2.45;1.75;;;7.80;99.90;;;;;;6079369;23;20030;-77
2023/01/06 05:33:39;;;;;;;4.18;1.50;;;7.80;99.90;;;;;;6077256;23;20058;-77
2023/01/06 05:36:14;;;;;;;2.17;1.80;;;7.80;99.90;;;;;;6079448;23;20010;-77
2023/01/06 05:38:40;;;;;;;2.55;1.38;;;7.90;99.90;;;;;;6076692;23;20034;-76
2023/01/06 05:41:06;;;;;;;1.50;0.98;;;7.80;99.90;;;;;;6077031;23;20085;-77
2023/01/06 05:43:33;;;;;;;1.25;0.80;;;7.60;99.90;;;;;;6078503;23;20010;-77
2023/01/06 05:46:03;;;;;;;1.83;0.60;;;7.50;99.90;;;;;;6075394;23;20012;-76
2023/01/06 05:48:28;;;;;;;2.88;0.60;;;7.40;99.90;;;;;;6078724;23;20191;-76
2023/01/06 05:51:05;;;;;;;1.88;0.90;;;7.40;99.90;;;;;;6081295;23;20427;-76
2023/01/06 05:53:32;;;;;;;1.67;0.70;;;7.30;99.90;;;;;;6079858;23;20026;-78
2023/01/06 05:56:00;;;;;;;0.98;0.73;;;7.10;99.90;;;;;;6079156;23;20458;-76
2023/01/06 05:58:25;;;;;;;2.63;1.00;;;7.00;99.90;;;;;;6080417;23;20038;-76
2023/01/06 06:00:51;;;;;;;1.75;0.80;;;6.90;99.90;;;;;;6077282;23;20024;-76
2023/01/06 06:03:17;;;;;;;2.35;0.68;;;6.80;99.90;;;;;;6079549;23;20021;-75
2023/01/06 06:05:42;;;;;;;1.63;0.70;;;6.80;99.90;;;;;;6077010;23;20010;-76
2023/01/06 06:08:08;;;;;;;2.08;0.60;;;6.80;99.90;;;;;;6077813;23;20065;-75
2023/01/06 06:10:33;;;;;;;2.55;0.80;;;6.70;99.90;;;;;;6077046;23;20734;-74
2023/01/06 06:12:59;;;;;;;1.40;0.80;;;6.60;99.90;;;;;;6075726;23;20002;-75
2023/01/06 06:15:25;;;;;;;1.58;0.47;;;6.60;99.90;;;;;;6076644;23;20042;-76
2023/01/06 06:17:50;;;;;;;3.00;0.55;;;6.50;99.90;;;;;;6076768;23;20002;-75
2023/01/06 06:20:16;;;;;;;2.05;0.63;;;6.50;99.90;;;;;;6077309;23;20018;-76
2023/01/06 06:22:41;;;;;;;0.98;0.50;;;6.50;99.90;;;;;;6074430;23;20014;-76
2023/01/06 06:25:07;;;;;;;1.27;0.70;;;6.50;99.90;;;;;;6075767;23;20376;-76
2023/01/06 06:27:33;;;;;;;1.38;0.50;;;6.50;99.90;;;;;;6079155;23;20145;-75
2023/01/06 06:29:59;;;;;;;2.45;0.50;;;6.50;99.90;;;;;;6077231;23;20101;-76
2023/01/06 06:32:24;;;;;;;2.13;0.73;;;6.50;99.90;;;;;;6077475;23;20049;-76
2023/01/06 06:34:50;;;;;;;1.30;0.55;;;6.50;99.90;;;;;;6078682;23;20710;-76
2023/01/06 06:37:15;;;;;;;2.58;0.95;;;6.40;99.90;;;;;;6077318;23;20333;-75
2023/01/06 06:39:41;;;;;;;1.33;0.70;;;6.30;99.90;;;;;;6076600;23;20003;-76
2023/01/06 06:42:07;;;;;;;1.10;0.57;;;6.30;99.90;;;;;;6078610;23;20097;-76
2023/01/06 06:44:32;;;;;;;1.75;0.65;;;6.40;99.90;;;;;;6081238;23;20010;-75
2023/01/06 06:46:58;;;;;;;1.50;0.50;;;6.50;99.90;;;;;;6080939;23;20006;-76
2023/01/06 06:49:23;;;;;;;1.67;0.80;;;6.50;99.90;;;;;;6078842;23;20009;-76
2023/01/06 06:51:49;;;;;;;0.63;0.60;;;6.50;99.90;;;;;;6082226;23;20321;-77
2023/01/06 06:54:15;;;;;;;3.25;1.50;;;6.60;99.90;;;;;;6079941;23;20086;-76
2023/01/06 06:56:40;;;;;;;1.30;1.00;;;6.70;99.90;;;;;;6080567;23;20014;-76
2023/01/06 06:59:06;;;;;;;2.00;1.10;;;6.70;99.90;;;;;;6080653;23;20650;-76
2023/01/06 07:01:32;;;;;;;1.70;0.68;;;6.70;99.90;;;;;;6079506;23;20006;-76
2023/01/06 07:03:57;;;;;;;0.70;0.50;;;6.70;99.90;;;;;;6081714;23;20010;-81
2023/01/06 07:06:26;;;;;;;1.83;0.40;;;6.70;99.90;;;;;;6080481;23;20065;-77
2023/01/06 07:08:52;;;;;;;1.83;0.40;;;6.70;99.90;;;;;;6078135;23;20081;-77
2023/01/06 07:11:18;;;;;;;1.55;0.68;;;6.70;99.90;;;;;;6077533;23;20002;-76
2023/01/06 07:13:44;;;;;;;1.38;0.40;;;6.70;99.90;;;;;;6079548;23;20014;-77
2023/01/06 07:16:10;;;;;;;1.25;0.70;;;6.70;99.90;;;;;;6082680;23;20770;-76
2023/01/06 07:18:35;;;;;;;0.82;0.60;;;6.80;99.90;;;;;;6079260;23;20014;-76
2023/01/06 07:21:01;;;;;;;3.97;0.93;;;6.80;99.90;;;;;;6078813;23;20416;-76
2023/01/06 07:23:27;;;;;;;1.63;0.80;;;6.90;99.90;;;;;;6078297;23;20025;-76
2023/01/06 07:26:02;;;;;;;1.65;0.73;;;6.90;99.90;;;;;;6078401;23;20018;-76
2023/01/06 07:28:30;;;;;;;0.32;0.32;;;6.90;99.90;;;;;;6078353;23;20352;-77
2023/01/06 07:30:55;;;;;;;2.15;0.70;;;6.90;99.90;;;;;;6073733;23;20085;-76
2023/01/06 07:33:21;;;;;;;1.85;0.40;;;6.90;99.90;;;;;;6078700;23;20480;-76
2023/01/06 07:35:52;;;;;;;3.10;0.65;;;7.00;99.90;;;;;;6078676;23;20113;-76
2023/01/06 07:38:18;;;;;;;0.40;0.40;;;7.10;99.90;;;;;;6080850;23;20002;-73
2023/01/06 07:40:43;;;;;;;2.10;0.60;;;7.20;99.90;;;;;;6075807;23;20013;-71
2023/01/06 07:43:10;;;;;;;2.95;1.08;;;7.20;99.90;;;;;;6079873;23;20015;-71
2023/01/06 07:45:36;;;;;;;1.65;0.60;;;7.30;99.90;;;;;;6077528;23;20006;-72
2023/01/06 07:48:03;;;;;;;1.65;0.43;;;7.50;99.90;;;;;;6075062;23;20349;-72
2023/01/06 07:50:29;;;;;;;2.00;0.60;;;7.60;99.90;;;;;;6076230;23;20006;-71
2023/01/06 07:52:59;;;;;;;1.58;0.70;;;7.80;99.90;;;;;;6078813;23;20013;-69
2023/01/06 07:55:24;;;;;;;1.55;0.47;;;7.90;99.90;;;;;;6078039;23;20862;-70
2023/01/06 07:57:51;;;;;;;3.65;0.60;;;8.00;99.90;;;;;;6077011;23;20002;-71
2023/01/06 08:00:17;;;;;;;1.30;0.50;;;8.20;99.90;;;;;;6076148;23;20755;-70
2023/01/06 08:02:43;;;;;;;6.70;0.50;;;8.40;99.90;;;;;;6075873;23;20149;-70
2023/01/06 08:05:08;;;;;;;1.23;0.55;;;8.60;99.90;;;;;;6075908;23;20743;-70
2023/01/06 08:07:34;;;;;;;1.27;0.43;;;8.80;99.90;;;;;;6077129;23;20017;-68
2023/01/06 08:10:00;;;;;;;3.20;0.43;;;8.90;99.90;;;;;;6076590;23;20371;-70
2023/01/06 08:12:26;;;;;;;1.83;0.40;;;9.00;99.90;;;;;;6075799;23;20006;-69
2023/01/06 08:14:51;;;;;;;1.48;0.55;;;9.20;99.90;;;;;;6074940;23;20006;-69
2023/01/06 08:17:17;;;;;;;0.68;0.30;;;9.20;99.90;;;;;;6075356;23;20017;-68
2023/01/06 08:19:42;;;;;;;0.90;0.45;;;9.20;99.90;;;;;;6077752;23;20006;-68
2023/01/06 08:22:08;;;;;;;0.95;0.40;;;9.30;99.90;;;;;;6081064;23;20468;-73
2023/01/06 08:24:34;;;;;;;0.65;0.40;;;9.30;99.90;;;;;;6082773;23;20013;-70
2023/01/06 08:27:00;;;;;;;2.15;0.75;;;9.30;99.90;;;;;;6081869;23;20176;-72
2023/01/06 08:29:26;;;;;;;0.88;0.40;;;9.40;99.90;;;;;;6082864;23;20006;-70
2023/01/06 08:31:52;;;;;;;2.40;0.50;;;9.60;99.90;;;;;;6082568;23;20026;-72
2023/01/06 08:34:18;;;;;;;1.25;0.68;;;9.70;99.90;;;;;;6084337;23;20002;-72
2023/01/06 08:36:44;;;;;;;2.72;0.38;;;9.80;99.90;;;;;;6083776;23;20006;-72
2023/01/06 08:39:11;;;;;;;2.28;0.80;;;10.00;99.90;;;;;;6079968;23;20006;-70
2023/01/06 08:41:37;;;;;;;1.40;0.52;;;10.00;99.90;;;;;;6076812;23;20120;-71
2023/01/06 08:44:03;;;;;;;2.00;0.45;;;10.10;99.90;;;;;;6073103;23;20065;-68
2023/01/06 08:46:29;;;;;;;2.55;0.50;;;10.10;99.90;;;;;;6074640;23;20475;-71
2023/01/06 08:48:56;;;;;;;0.28;0.28;;;10.00;99.90;;;;;;6073883;23;20011;-71
2023/01/06 08:51:23;;;;;;;1.30;0.30;;;10.10;99.90;;;;;;6073492;23;20173;-70
2023/01/06 08:53:49;;;;;;;2.50;0.40;;;10.10;99.90;;;;;;6075707;23;20069;-70
2023/01/06 08:56:22;;;;;;;1.13;0.52;;;10.20;99.90;;;;;;6075580;23;20724;-69
2023/01/06 08:59:02;;;;;;;1.10;0.70;;;10.10;99.90;;;;;;6073324;23;20818;-69
2023/01/06 09:01:33;;;;;;;1.85;0.45;;;10.00;99.90;;;;;;6073663;23;20443;-69
2023/01/06 09:04:00;;;;;;;1.85;0.43;;;10.10;99.90;;;;;;6068555;23;20340;-69
2023/01/06 09:06:27;;;;;;;0.75;0.22;;;10.30;99.90;;;;;;6076148;23;19999;-69
2023/01/06 09:08:54;;;;;;;2.20;0.68;;;10.40;99.90;;;;;;6076190;23;20006;-68
2023/01/06 09:11:20;;;;;;;2.83;0.43;;;10.40;99.90;;;;;;6076250;23;20013;-69
2023/01/06 09:13:46;;;;;;;0.63;0.25;;;10.40;99.90;;;;;;6074849;23;20370;-69
2023/01/06 09:16:12;;;;;;;0.55;0.38;;;10.30;99.90;;;;;;6070335;23;20332;-68
2023/01/06 09:18:39;;;;;;;1.35;0.43;;;10.30;99.90;;;;;;6070577;23;20009;-68
2023/01/06 09:21:05;;;;;;;0.60;0.32;;;10.30;99.90;;;;;;6076063;23;20017;-69
2023/01/06 09:23:31;;;;;;;0.75;0.30;;;10.40;99.90;;;;;;6079114;23;20010;-69
2023/01/06 09:25:57;;;;;;;1.60;0.38;;;10.40;99.90;;;;;;6074160;23;20010;-70
2023/01/06 09:28:24;;;;;;;0.95;0.30;;;10.40;99.90;;;;;;6072607;23;20014;-68
2023/01/06 09:30:49;;;;;;;2.20;0.60;;;10.50;99.90;;;;;;6079257;23;20006;-68
2023/01/06 09:33:16;;;;;;;1.63;0.50;;;10.50;99.90;;;;;;6082467;23;20150;-69
2023/01/06 09:35:43;;;;;;;3.22;0.80;;;10.40;99.90;;;;;;6080534;23;20006;-71
2023/01/06 09:38:10;;;;;;;1.10;0.60;;;10.40;99.90;;;;;;6086631;23;20032;-71
2023/01/06 09:41:04;;;;;;;2.30;1.00;;;10.50;99.90;;;;;;6084222;23;20007;-70
2023/01/06 09:43:30;;;;;;;2.05;0.70;;;10.50;99.90;;;;;;6085540;23;20037;-71
2023/01/06 09:46:00;;;;;;;1.45;0.80;;;10.50;99.90;;;;;;6083576;23;20455;-71
2023/01/06 09:48:35;;;;;;;1.67;0.60;;;10.50;99.90;;;;;;6086083;23;20011;-71
2023/01/06 09:51:05;;;;;;;5.78;1.00;;;10.40;99.90;;;;;;6083989;23;19999;-68
2023/01/06 09:53:36;;;;;;;2.75;0.70;;;10.40;99.90;;;;;;6086110;23;20009;-68
2023/01/06 09:56:06;;;;;;;2.38;0.70;;;10.40;99.90;;;;;;6082782;23;20005;-68
2023/01/06 09:58:53;;;;;;;1.38;0.50;;;10.40;99.90;;;;;;6085182;23;20155;-68
2023/01/06 10:01:27;;;;;;;1.88;0.90;;;10.30;99.90;;;;;;6083005;23;20074;-68
2023/01/06 10:03:55;;;;;;;0.82;0.60;;;10.30;99.90;;;;;;6084670;23;20038;-68
2023/01/06 10:06:34;;;;;;;1.98;0.57;;;10.30;99.90;;;;;;6076993;23;20014;-69
2023/01/06 10:09:27;;;;;;;76.57;4.22;;;10.30;99.90;;;;;;6083136;23;20348;-68
2023/01/06 10:12:18;;;;;;;2.17;0.70;;;10.40;99.90;;;;;;6081949;23;20029;-69
2023/01/06 10:14:55;;;;;;;1.13;0.55;;;10.50;99.90;;;;;;6082700;23;20015;-68
2023/01/06 10:17:36;;;;;;;0.93;0.73;;;10.50;99.90;;;;;;6081443;23;20006;-68
2023/01/06 10:20:33;;;;;;;10.23;5.53;;;10.60;99.90;;;;;;6085263;23;20078;-68
2023/01/06 10:23:13;;;;;;;5.15;3.50;;;10.60;99.90;;;;;;6077775;23;20102;-68
2023/01/06 10:25:40;;;;;;;4.70;2.72;;;10.50;99.90;;;;;;6080428;23;20034;-68
2023/01/06 10:28:29;;;;;;;18.48;8.48;;;10.50;99.90;;;;;;6085082;23;20018;-68
2023/01/06 10:31:01;;;;;;;52.53;29.30;;;10.40;99.90;;;;;;6078786;23;20030;-68
2023/01/06 10:33:31;;;;;;;42.55;22.67;;;10.30;99.90;;;;;;6078778;23;20037;-68
2023/01/06 10:35:58;;;;;;;12.18;5.10;;;10.20;99.90;;;;;;6081707;23;20024;-68
2023/01/06 10:38:33;;;;;;;18.75;4.95;;;10.20;99.90;;;;;;6083706;23;20749;-68
2023/01/06 10:41:23;;;;;;;2.40;1.35;;;10.30;99.90;;;;;;6081426;23;20007;-68
2023/01/06 10:43:49;;;;;;;11.88;3.95;;;10.20;99.90;;;;;;6083637;23;20010;-68
2023/01/06 10:46:15;;;;;;;5.72;3.42;;;10.20;99.90;;;;;;6082475;23;20021;-68
2023/01/06 10:48:41;;;;;;;5.10;3.22;;;10.20;99.90;;;;;;6081377;23;20010;-68
2023/01/06 10:51:40;;;;;;;5.72;3.83;;;10.20;99.90;;;;;;6081378;23;20010;-68
2023/01/06 10:54:12;;;;;;;8.00;2.90;;;10.20;99.90;;;;;;6064883;23;20010;-68
2023/01/06 10:56:42;;;;;;;4.43;4.00;;;10.20;99.90;;;;;;6081209;23;20467;-68
2023/01/06 10:59:09;;;;;;;5.45;4.65;;;10.20;99.90;;;;;;6085652;23;20006;-67
2023/01/06 11:01:50;;;;;;;4.40;2.45;;;10.10;99.90;;;;;;6089664;23;20586;-68
2023/01/06 11:04:17;;;;;;;1.88;0.90;;;10.10;99.90;;;;;;6088156;23;20002;-68
2023/01/06 11:06:51;;;;;;;4.45;3.03;;;10.20;99.90;;;;;;6086335;23;20374;-68
2023/01/06 11:09:38;;;;;;;6.88;5.00;;;10.10;99.90;;;;;;6084195;23;20002;-69
2023/01/06 11:12:18;;;;;;;5.63;4.30;;;10.10;99.90;;;;;;6082005;23;20030;-69
2023/01/06 11:14:54;;;;;;;4.18;3.17;;;10.10;99.90;;;;;;6087619;23;20071;-67
2023/01/06 11:17:21;;;;;;;4.22;2.83;;;10.10;99.90;;;;;;6084916;23;20014;-68
2023/01/06 11:20:12;;;;;;;4.40;2.88;;;10.00;99.90;;;;;;6084324;23;20014;-68
2023/01/06 11:22:40;;;;;;;4.05;2.63;;;10.00;99.90;;;;;;6084789;23;20487;-68
2023/01/06 11:25:29;;;;;;;5.50;4.28;;;10.10;99.90;;;;;;6084947;23;20021;-68
2023/01/06 11:28:19;;;;;;;7.57;4.63;;;10.10;99.90;;;;;;6079813;23;20029;-69
2023/01/06 11:30:56;;;;;;;4.45;2.50;;;9.90;99.90;;;;;;6084992;23;20084;-70
2023/01/06 11:33:25;;;;;;;5.47;3.00;;;9.90;99.90;;;;;;6084876;23;20009;-70
2023/01/06 11:35:52;;;;;;;6.40;3.63;;;10.00;99.90;;;;;;6082583;23;20077;-70
2023/01/06 11:38:19;;;;;;;5.72;2.80;;;10.00;99.90;;;;;;6083133;23;20036;-71
2023/01/06 11:40:50;;;;;;;3.30;1.63;;;10.10;99.90;;;;;;6082800;23;20503;-68
2023/01/06 11:43:30;;;;;;;2.75;1.60;;;10.10;99.90;;;;;;6083675;23;20065;-69
2023/01/06 11:45:58;;;;;;;3.55;1.67;;;10.10;99.90;;;;;;6076594;23;20007;-70
2023/01/06 11:48:43;;;;;;;4.28;2.70;;;10.10;99.90;;;;;;6081040;23;20435;-70
2023/01/06 11:51:09;;;;;;;5.30;1.90;;;10.20;99.90;;;;;;6081755;23;20006;-70
2023/01/06 11:53:37;;;;;;;7.78;4.68;;;10.40;99.90;;;;;;6076811;23;20014;-70
2023/01/06 11:56:03;;;;;;;2.22;1.40;;;10.50;99.90;;;;;;6075899;23;20099;-70
2023/01/06 11:58:48;;;;;;;1.42;1.20;;;10.60;99.90;;;;;;6081498;23;20084;-70
2023/01/06 12:01:17;;;;;;;2.50;0.90;;;10.50;99.90;;;;;;6078788;23;20546;-70
2023/01/06 12:03:50;;;;;;;3.90;2.00;;;10.50;99.90;;;;;;6071248;23;20819;-71
2023/01/06 12:06:38;;;;;;;8.95;3.97;;;10.50;99.90;;;;;;6076578;23;20045;-69
2023/01/06 12:09:05;;;;;;;8.85;3.17;;;10.60;99.90;;;;;;6078952;23;20016;-70
2023/01/06 12:11:47;;;;;;;6.72;2.85;;;10.60;99.90;;;;;;6074828;23;20169;-70
2023/01/06 12:14:21;;;;;;;6.57;4.05;;;10.70;99.90;;;;;;6079355;23;20006;-70
2023/01/06 12:17:04;;;;;;;8.43;4.53;;;10.70;99.90;;;;;;6081094;23;20710;-70
2023/01/06 12:19:49;;;;;;;10.75;8.80;;;10.70;99.90;;;;;;6083992;23;20887;-70
2023/01/06 12:22:44;;;;;;;1.58;0.73;;;10.80;99.90;;;;;;6084535;23;20014;-70
2023/01/06 12:25:36;;;;;;;2.60;0.45;;;10.80;99.90;;;;;;6078611;23;20003;-70
2023/01/06 12:28:11;;;;;;;1.55;0.40;;;10.80;99.90;;;;;;6075571;23;20404;-69
2023/01/06 12:30:40;;;;;;;1.17;0.40;;;10.90;99.90;;;;;;6086732;23;20013;-70
2023/01/06 12:33:27;;;;;;;1.15;0.30;;;10.80;99.90;;;;;;6085007;23;20643;-69
2023/01/06 12:35:58;;;;;;;0.93;0.47;;;10.80;99.90;;;;;;6082981;23;20050;-70
2023/01/06 12:38:45;;;;;;;0.70;0.20;;;10.80;99.90;;;;;;6082840;23;20017;-70
2023/01/06 12:41:30;;;;;;;2.30;0.70;;;10.80;99.90;;;;;;6082061;23;20006;-69
2023/01/06 12:44:21;;;;;;;1.13;0.40;;;10.70;99.90;;;;;;6083894;23;20022;-70
2023/01/06 12:47:00;;;;;;;1.08;0.40;;;10.60;99.90;;;;;;6085389;23;20002;-70
2023/01/06 12:49:29;;;;;;;1.08;0.47;;;10.60;99.90;;;;;;6083807;23;20006;-70
2023/01/06 12:52:01;;;;;;;1.23;0.50;;;10.50;99.90;;;;;;6082181;23;20017;-70
2023/01/06 12:54:31;;;;;;;1.35;0.40;;;10.50;99.90;;;;;;6080306;23;20030;-69
2023/01/06 12:57:15;;;;;;;1.55;0.40;;;10.50;99.90;;;;;;6078366;23;20006;-70
2023/01/06 12:59:56;;;;;;;1.13;0.45;;;10.60;99.90;;;;;;6074635;23;20007;-70
2023/01/06 13:02:50;;;;;;;0.52;0.40;;;10.60;99.90;;;;;;6064240;23;20014;-69
2023/01/06 13:05:49;;;;;;;1.70;0.40;;;10.60;99.90;;;;;;6080862;23;20081;-69
2023/01/06 13:08:37;;;;;;;2.22;0.60;;;10.60;99.90;;;;;;6078475;23;20014;-69
2023/01/06 13:11:32;;;;;;;1.00;0.60;;;10.50;99.90;;;;;;6077128;23;20499;-69
2023/01/06 13:14:11;;;;;;;0.95;0.40;;;10.50;99.90;;;;;;6077569;23;20006;-69
2023/01/06 13:16:56;;;;;;;0.63;0.45;;;10.50;99.90;;;;;;6082352;23;20002;-69